Time;durP1;ratioP1;P1;durP2;ratioP2;P2;SDS_P1;SDS_P2;PMS_P1;PMS_P2;Temp;Humidity;BMP_temperature;BMP_pressure;BME280_temperature;BME280_humidity;BME280_pressure;Samples;Min_cycle;Max_cycle;Signal;HPM_P1;HPM_P2
2023/05/25 00:02:03;;;;;;;21.20;8.00;;;;;;;;;;5015800;28;20892;-79
2023/05/25 00:04:33;;;;;;;11.77;6.47;;;;;;;;;;5035881;28;20490;-81
2023/05/25 00:06:59;;;;;;;16.60;6.40;;;;;;;;;;4984789;28;1085394;-81
2023/05/25 00:09:27;;;;;;;13.67;6.53;;;;;;;;;;5035772;28;20488;-81
2023/05/25 00:11:53;;;;;;;14.93;7.27;;;;;;;;;;5033963;28;20479;-81
2023/05/25 00:14:20;;;;;;;9.87;6.30;;;;;;;;;;5031118;28;20474;-81
2023/05/25 00:16:49;;;;;;;10.23;5.87;;;;;;;;;;5037983;28;20935;-80
2023/05/25 00:19:17;;;;;;;10.93;6.73;;;;;;;;;;5031372;28;20862;-81
2023/05/25 00:21:47;;;;;;;12.20;6.40;;;;;;;;;;5025387;28;21092;-80
2023/05/25 00:24:13;;;;;;;9.20;6.17;;;;;;;;;;5018326;28;20503;-80
2023/05/25 00:26:39;;;;;;;16.40;6.20;;;;;;;;;;5036447;28;20460;-81
2023/05/25 00:29:06;;;;;;;11.70;6.77;;;;;;;;;;5036665;28;20467;-81
2023/05/25 00:31:34;;;;;;;9.70;6.70;;;;;;;;;;5034777;28;20440;-81
2023/05/25 00:34:01;;;;;;;14.27;6.77;;;;;;;;;;5013437;28;20514;-81
2023/05/25 00:36:28;;;;;;;11.30;6.30;;;;;;;;;;5029946;28;20452;-80
2023/05/25 00:38:54;;;;;;;13.40;6.60;;;;;;;;;;5032089;28;20487;-81
2023/05/25 00:41:21;;;;;;;15.20;7.43;;;;;;;;;;5032204;28;20473;-80
2023/05/25 00:43:48;;;;;;;20.53;7.50;;;;;;;;;;5006756;28;20473;-80
2023/05/25 00:46:15;;;;;;;17.53;8.07;;;;;;;;;;5031803;28;20528;-81
2023/05/25 00:48:42;;;;;;;13.10;6.20;;;;;;;;;;5030300;28;20904;-81
2023/05/25 00:51:11;;;;;;;12.63;6.03;;;;;;;;;;5027097;28;20844;-80
2023/05/25 00:53:37;;;;;;;15.17;5.83;;;;;;;;;;5027575;28;20484;-80
2023/05/25 00:56:05;;;;;;;12.03;6.67;;;;;;;;;;5028415;28;20437;-81
2023/05/25 00:58:33;;;;;;;11.87;6.13;;;;;;;;;;5013052;28;20477;-80
2023/05/25 01:01:00;;;;;;;11.40;6.50;;;;;;;;;;5018403;28;20473;-81
2023/05/25 01:03:28;;;;;;;12.80;5.90;;;;;;;;;;5039710;28;20994;-81
2023/05/25 01:05:56;;;;;;;14.93;6.63;;;;;;;;;;5033106;28;20457;-80
2023/05/25 01:08:24;;;;;;;10.67;5.47;;;;;;;;;;5027020;28;20479;-79
2023/05/25 01:10:52;;;;;;;11.63;6.07;;;;;;;;;;5036832;28;20448;-82
2023/05/25 01:13:19;;;;;;;12.93;6.53;;;;;;;;;;5027229;28;20470;-81
2023/05/25 01:15:46;;;;;;;10.23;6.00;;;;;;;;;;5030482;28;20464;-80
2023/05/25 01:18:15;;;;;;;10.33;6.13;;;;;;;;;;5016525;28;20468;-82
2023/05/25 01:20:52;;;;;;;13.80;6.90;;;;;;;;;;5028207;28;20449;-81
2023/05/25 01:23:20;;;;;;;12.57;6.63;;;;;;;;;;5034108;28;20468;-80
2023/05/25 01:25:48;;;;;;;11.80;6.00;;;;;;;;;;5029833;28;20871;-81
2023/05/25 01:28:17;;;;;;;11.63;6.10;;;;;;;;;;5034676;28;20484;-81
2023/05/25 01:30:46;;;;;;;17.60;6.20;;;;;;;;;;5029439;28;20463;-82
2023/05/25 01:33:13;;;;;;;10.90;5.70;;;;;;;;;;5023826;28;21013;-82
2023/05/25 01:35:41;;;;;;;12.07;6.03;;;;;;;;;;5032236;28;20524;-82
2023/05/25 01:38:09;;;;;;;9.20;6.43;;;;;;;;;;5032429;28;20476;-81
2023/05/25 01:40:35;;;;;;;11.60;6.50;;;;;;;;;;5035959;28;20499;-83
2023/05/25 01:43:02;;;;;;;9.17;7.33;;;;;;;;;;5032287;28;20471;-81
2023/05/25 01:45:28;;;;;;;9.67;6.80;;;;;;;;;;5035378;28;20460;-82
2023/05/25 01:47:58;;;;;;;8.30;6.17;;;;;;;;;;5036877;28;20464;-82
2023/05/25 01:50:28;;;;;;;10.90;6.50;;;;;;;;;;5010391;28;20829;-82
2023/05/25 01:52:56;;;;;;;12.20;6.30;;;;;;;;;;5034812;28;20516;-82
2023/05/25 01:55:26;;;;;;;12.50;7.47;;;;;;;;;;5031238;28;20471;-82
2023/05/25 01:57:56;;;;;;;10.60;6.60;;;;;;;;;;5032733;28;20982;-82
2023/05/25 02:00:24;;;;;;;11.37;6.90;;;;;;;;;;5032332;28;20796;-82
2023/05/25 02:02:52;;;;;;;12.73;7.53;;;;;;;;;;5030725;28;20500;-82
2023/05/25 02:05:19;;;;;;;7.30;5.73;;;;;;;;;;5028832;28;20452;-82
2023/05/25 02:07:46;;;;;;;10.43;7.40;;;;;;;;;;5017416;28;20686;-82
2023/05/25 02:10:12;;;;;;;8.37;6.37;;;;;;;;;;5036874;28;20483;-82
2023/05/25 02:12:40;;;;;;;15.83;6.47;;;;;;;;;;5034730;28;20452;-81
2023/05/25 02:15:08;;;;;;;15.10;7.67;;;;;;;;;;5032075;28;20473;-82
2023/05/25 02:17:35;;;;;;;10.50;6.23;;;;;;;;;;5034400;28;20533;-82
2023/05/25 02:20:02;;;;;;;9.97;7.57;;;;;;;;;;5027227;28;20838;-81
2023/05/25 02:22:30;;;;;;;12.80;7.40;;;;;;;;;;5043121;28;20488;-82
2023/05/25 02:24:56;;;;;;;11.47;7.03;;;;;;;;;;5028660;28;20940;-80
2023/05/25 02:27:23;;;;;;;13.93;7.30;;;;;;;;;;5032705;28;20476;-83
2023/05/25 02:29:52;;;;;;;10.17;7.60;;;;;;;;;;5018734;28;20472;-83
2023/05/25 02:32:20;;;;;;;10.00;7.40;;;;;;;;;;5030336;28;20471;-83
2023/05/25 02:34:46;;;;;;;13.40;6.53;;;;;;;;;;5022508;28;20552;-83
2023/05/25 02:37:13;;;;;;;12.50;7.60;;;;;;;;;;5034196;28;20561;-82
2023/05/25 02:39:39;;;;;;;10.87;8.33;;;;;;;;;;5029016;28;20469;-81
2023/05/25 02:42:06;;;;;;;11.80;8.37;;;;;;;;;;5022809;28;20490;-82
2023/05/25 02:44:32;;;;;;;12.03;7.80;;;;;;;;;;5029609;28;20480;-81
2023/05/25 02:47:00;;;;;;;17.50;9.63;;;;;;;;;;5011695;28;20472;-82
2023/05/25 02:49:26;;;;;;;14.90;7.77;;;;;;;;;;5033702;28;20488;-81
2023/05/25 02:51:53;;;;;;;11.57;7.60;;;;;;;;;;5033538;28;20453;-80
2023/05/25 02:54:19;;;;;;;11.20;7.70;;;;;;;;;;5022840;28;20558;-83
2023/05/25 02:56:45;;;;;;;19.10;8.10;;;;;;;;;;5031392;28;20499;-82
2023/05/25 02:59:12;;;;;;;12.70;10.10;;;;;;;;;;5028714;28;20472;-83
2023/05/25 03:01:39;;;;;;;14.80;7.83;;;;;;;;;;5036254;28;21016;-80
2023/05/25 03:04:07;;;;;;;21.73;10.20;;;;;;;;;;5028383;28;20469;-80
2023/05/25 03:06:35;;;;;;;14.93;8.57;;;;;;;;;;5033517;28;20453;-80
2023/05/25 03:09:03;;;;;;;16.20;9.30;;;;;;;;;;5033110;28;20503;-82
2023/05/25 03:11:30;;;;;;;15.63;9.43;;;;;;;;;;5031641;28;20460;-80
2023/05/25 03:13:56;;;;;;;15.27;10.10;;;;;;;;;;5026713;28;20473;-80
2023/05/25 03:16:23;;;;;;;24.50;10.53;;;;;;;;;;5030599;28;20825;-80
2023/05/25 03:18:49;;;;;;;17.50;11.40;;;;;;;;;;5030991;28;20525;-80
2023/05/25 03:21:17;;;;;;;15.63;11.70;;;;;;;;;;5032774;28;20434;-80
2023/05/25 03:23:43;;;;;;;15.20;10.50;;;;;;;;;;5032774;28;20469;-80
2023/05/25 03:26:10;;;;;;;18.53;11.67;;;;;;;;;;5015592;28;20886;-81
2023/05/25 03:28:36;;;;;;;16.90;12.13;;;;;;;;;;5031998;28;20469;-81
2023/05/25 03:31:03;;;;;;;19.67;11.67;;;;;;;;;;5029783;28;20445;-81
2023/05/25 03:33:29;;;;;;;19.97;13.63;;;;;;;;;;5029798;28;20465;-81
2023/05/25 03:35:56;;;;;;;21.60;11.70;;;;;;;;;;5029743;28;20530;-80
2023/05/25 03:38:23;;;;;;;21.83;12.20;;;;;;;;;;5029296;28;20475;-81
2023/05/25 03:40:50;;;;;;;22.23;12.90;;;;;;;;;;5032727;28;20472;-80
2023/05/25 03:43:17;;;;;;;24.37;11.77;;;;;;;;;;5022341;28;20471;-81
2023/05/25 03:45:43;;;;;;;18.70;12.53;;;;;;;;;;5030307;28;20950;-80
2023/05/25 03:48:10;;;;;;;28.90;13.17;;;;;;;;;;5030846;28;20469;-81
2023/05/25 03:50:36;;;;;;;29.43;13.87;;;;;;;;;;5033135;28;20451;-81
2023/05/25 03:53:02;;;;;;;27.33;14.23;;;;;;;;;;5023716;28;20467;-81
2023/05/25 03:55:31;;;;;;;28.03;14.17;;;;;;;;;;5033876;28;20452;-81
2023/05/25 03:57:58;;;;;;;25.13;14.30;;;;;;;;;;5029525;28;20523;-80
2023/05/25 04:00:24;;;;;;;21.73;13.93;;;;;;;;;;5026488;28;20543;-81
2023/05/25 04:02:51;;;;;;;19.03;13.17;;;;;;;;;;5027823;28;20982;-80
2023/05/25 04:05:17;;;;;;;25.10;13.80;;;;;;;;;;5025092;28;20791;-80
2023/05/25 04:07:44;;;;;;;24.93;13.00;;;;;;;;;;5030150;28;20496;-81
2023/05/25 04:10:11;;;;;;;26.37;14.63;;;;;;;;;;5031684;28;20465;-81
2023/05/25 04:12:39;;;;;;;22.70;14.00;;;;;;;;;;5030556;28;20452;-81
2023/05/25 04:15:08;;;;;;;20.10;13.20;;;;;;;;;;5039586;28;20479;-82
2023/05/25 04:17:34;;;;;;;25.20;14.80;;;;;;;;;;5029321;28;20849;-82
2023/05/25 04:20:01;;;;;;;29.27;14.67;;;;;;;;;;5025091;28;20490;-81
2023/05/25 04:22:27;;;;;;;22.37;13.97;;;;;;;;;;5027864;28;20480;-82
2023/05/25 04:24:53;;;;;;;27.83;15.40;;;;;;;;;;5028689;28;20994;-82
2023/05/25 04:27:21;;;;;;;26.63;16.60;;;;;;;;;;5010699;28;20489;-82
2023/05/25 04:29:49;;;;;;;32.90;16.20;;;;;;;;;;5008288;28;20839;-82
2023/05/25 04:32:16;;;;;;;26.07;15.93;;;;;;;;;;5032083;28;20511;-81
2023/05/25 04:34:43;;;;;;;25.80;15.70;;;;;;;;;;5035702;28;20464;-81
2023/05/25 04:37:09;;;;;;;34.20;15.23;;;;;;;;;;5035682;28;20460;-81
2023/05/25 04:39:36;;;;;;;27.53;17.00;;;;;;;;;;5031650;28;20477;-82
2023/05/25 04:42:03;;;;;;;28.07;17.70;;;;;;;;;;5034257;28;20854;-82
2023/05/25 04:44:29;;;;;;;29.10;17.03;;;;;;;;;;5019703;28;20526;-82
2023/05/25 04:46:58;;;;;;;25.93;16.30;;;;;;;;;;5031667;28;20485;-81
2023/05/25 04:49:25;;;;;;;27.03;16.00;;;;;;;;;;5034040;28;20476;-81
2023/05/25 04:51:51;;;;;;;32.13;16.40;;;;;;;;;;5036183;28;20471;-80
2023/05/25 04:54:17;;;;;;;21.43;14.73;;;;;;;;;;5032232;28;20465;-81
2023/05/25 04:56:44;;;;;;;27.27;17.23;;;;;;;;;;5036580;28;20457;-81
2023/05/25 04:59:10;;;;;;;27.50;14.80;;;;;;;;;;5034735;28;20560;-81
2023/05/25 05:01:39;;;;;;;44.53;16.73;;;;;;;;;;5016637;28;20464;-81
2023/05/25 05:04:07;;;;;;;27.60;14.77;;;;;;;;;;5037323;28;20496;-81
2023/05/25 05:06:34;;;;;;;21.27;14.10;;;;;;;;;;5036264;28;20457;-81
2023/05/25 05:09:00;;;;;;;27.83;14.30;;;;;;;;;;5031743;28;20468;-81
2023/05/25 05:11:27;;;;;;;30.83;14.90;;;;;;;;;;5034096;28;20442;-81
2023/05/25 05:13:54;;;;;;;22.10;14.67;;;;;;;;;;5027323;28;20472;-80
2023/05/25 05:16:20;;;;;;;21.77;14.27;;;;;;;;;;5036776;28;20465;-82
2023/05/25 05:18:46;;;;;;;23.53;13.87;;;;;;;;;;5033340;28;20477;-81
2023/05/25 05:21:14;;;;;;;22.17;14.27;;;;;;;;;;5034337;28;20461;-81
2023/05/25 05:23:42;;;;;;;20.90;13.70;;;;;;;;;;5029822;28;20477;-82
2023/05/25 05:26:10;;;;;;;25.27;12.87;;;;;;;;;;5037409;28;21018;-81
2023/05/25 05:28:36;;;;;;;20.33;12.87;;;;;;;;;;5030019;28;20470;-80
2023/05/25 05:31:03;;;;;;;17.67;11.93;;;;;;;;;;5036440;28;20464;-81
2023/05/25 05:33:30;;;;;;;31.83;13.70;;;;;;;;;;5036135;28;20471;-81
2023/05/25 05:35:56;;;;;;;26.00;12.93;;;;;;;;;;5031413;28;20511;-81
2023/05/25 05:38:24;;;;;;;32.63;12.43;;;;;;;;;;5031019;28;20474;-81
2023/05/25 05:40:50;;;;;;;22.90;11.83;;;;;;;;;;5037426;28;20966;-81
2023/05/25 05:43:17;;;;;;;18.93;12.70;;;;;;;;;;5037689;28;20472;-81
2023/05/25 05:45:43;;;;;;;17.47;12.33;;;;;;;;;;5025882;28;20449;-81
2023/05/25 05:48:09;;;;;;;17.63;11.87;;;;;;;;;;5035819;28;20473;-80
2023/05/25 05:50:36;;;;;;;27.00;15.50;;;;;;;;;;5014862;28;20445;-81
2023/05/25 05:53:02;;;;;;;20.37;11.17;;;;;;;;;;5033285;28;20476;-81
2023/05/25 05:55:30;;;;;;;18.10;11.17;;;;;;;;;;5036131;28;20452;-80
2023/05/25 05:57:57;;;;;;;17.97;10.10;;;;;;;;;;5031402;28;20488;-81
2023/05/25 06:00:23;;;;;;;16.37;10.27;;;;;;;;;;5037142;28;20456;-81
2023/05/25 06:02:50;;;;;;;17.43;10.03;;;;;;;;;;5028860;28;20478;-81
2023/05/25 06:05:16;;;;;;;18.10;8.97;;;;;;;;;;5022665;28;20508;-81
2023/05/25 06:07:43;;;;;;;21.40;8.93;;;;;;;;;;5034529;28;20492;-81
2023/05/25 06:10:09;;;;;;;18.90;9.00;;;;;;;;;;5017058;28;20440;-81
2023/05/25 06:12:37;;;;;;;23.73;10.17;;;;;;;;;;5029980;28;20445;-81
2023/05/25 06:15:05;;;;;;;13.20;8.33;;;;;;;;;;5024931;28;20468;-80
2023/05/25 06:17:31;;;;;;;14.40;7.83;;;;;;;;;;5031093;28;20481;-81
2023/05/25 06:19:57;;;;;;;16.33;8.37;;;;;;;;;;5029125;28;20466;-81
2023/05/25 06:22:26;;;;;;;17.70;7.23;;;;;;;;;;5007194;28;20482;-81
2023/05/25 06:24:53;;;;;;;12.33;7.40;;;;;;;;;;5030326;28;20469;-81
2023/05/25 06:27:19;;;;;;;16.23;7.07;;;;;;;;;;5023060;28;20439;-81
2023/05/25 06:29:47;;;;;;;11.23;5.90;;;;;;;;;;5026402;28;21047;-81
2023/05/25 06:32:13;;;;;;;16.47;7.50;;;;;;;;;;5034167;28;20445;-80
2023/05/25 06:34:40;;;;;;;17.00;8.33;;;;;;;;;;5032055;28;20481;-81
2023/05/25 06:37:06;;;;;;;13.63;7.47;;;;;;;;;;5033479;28;20465;-81
2023/05/25 06:39:33;;;;;;;23.20;6.83;;;;;;;;;;5028399;28;20496;-81
2023/05/25 06:42:00;;;;;;;12.60;6.70;;;;;;;;;;5030127;28;20444;-81
2023/05/25 06:44:26;;;;;;;14.40;7.20;;;;;;;;;;5033060;28;20550;-81
2023/05/25 06:46:54;;;;;;;12.63;7.90;;;;;;;;;;5032755;28;20441;-80
2023/05/25 06:49:20;;;;;;;17.17;6.80;;;;;;;;;;5032449;28;20464;-80
2023/05/25 06:51:47;;;;;;;19.33;6.40;;;;;;;;;;5031135;28;20498;-80
2023/05/25 06:54:14;;;;;;;14.77;6.70;;;;;;;;;;5008596;28;21021;-79
2023/05/25 06:56:40;;;;;;;19.20;7.40;;;;;;;;;;5037611;28;20495;-79
2023/05/25 06:59:07;;;;;;;15.00;8.10;;;;;;;;;;5024250;28;20480;-79
2023/05/25 07:01:33;;;;;;;15.30;6.20;;;;;;;;;;5027680;28;20442;-79
2023/05/25 07:04:01;;;;;;;13.10;5.93;;;;;;;;;;5023399;28;20469;-80
2023/05/25 07:06:27;;;;;;;12.27;6.03;;;;;;;;;;5029216;28;20468;-82
2023/05/25 07:08:54;;;;;;;15.80;7.37;;;;;;;;;;5021508;28;21460;-81
2023/05/25 07:11:22;;;;;;;22.63;6.83;;;;;;;;;;5027796;28;20448;-81
2023/05/25 07:13:48;;;;;;;20.23;6.67;;;;;;;;;;5032869;28;20491;-81
2023/05/25 07:16:14;;;;;;;17.37;7.10;;;;;;;;;;5031292;28;20453;-81
2023/05/25 07:18:41;;;;;;;15.87;7.30;;;;;;;;;;5033389;28;20974;-81
2023/05/25 07:21:09;;;;;;;22.60;7.53;;;;;;;;;;5033612;28;20503;-80
2023/05/25 07:23:35;;;;;;;17.73;6.93;;;;;;;;;;5031236;28;20507;-81
2023/05/25 07:26:02;;;;;;;16.83;6.80;;;;;;;;;;5033931;28;20419;-81
2023/05/25 07:28:28;;;;;;;19.20;8.30;;;;;;;;;;5026305;28;20468;-81
2023/05/25 07:30:54;;;;;;;13.10;7.43;;;;;;;;;;5027617;28;20504;-81
2023/05/25 07:33:22;;;;;;;13.27;7.07;;;;;;;;;;5020421;28;20467;-80
2023/05/25 07:35:50;;;;;;;19.90;6.43;;;;;;;;;;5022649;28;20479;-81
2023/05/25 07:38:18;;;;;;;22.57;7.07;;;;;;;;;;5015047;28;20450;-82
2023/05/25 07:40:46;;;;;;;33.37;8.60;;;;;;;;;;5034307;28;20463;-81
2023/05/25 07:43:12;;;;;;;16.27;7.40;;;;;;;;;;5035355;28;20469;-79
2023/05/25 07:45:39;;;;;;;18.60;7.20;;;;;;;;;;5026471;28;20453;-81
2023/05/25 07:48:06;;;;;;;24.00;7.63;;;;;;;;;;5025769;28;20481;-81
2023/05/25 07:50:32;;;;;;;23.67;7.93;;;;;;;;;;5027500;28;20451;-81
2023/05/25 07:52:59;;;;;;;17.77;6.53;;;;;;;;;;5030998;28;20420;-81
2023/05/25 07:55:27;;;;;;;18.60;7.87;;;;;;;;;;5030297;28;20448;-81
2023/05/25 07:57:53;;;;;;;25.73;6.40;;;;;;;;;;5032823;28;20473;-81
2023/05/25 08:00:20;;;;;;;20.23;6.30;;;;;;;;;;5030999;28;20445;-80
2023/05/25 08:02:46;;;;;;;15.80;6.47;;;;;;;;;;5028202;28;20462;-82
2023/05/25 08:05:13;;;;;;;19.40;6.23;;;;;;;;;;5030806;28;20446;-82
2023/05/25 08:07:40;;;;;;;26.47;5.60;;;;;;;;;;5016677;28;20815;-80
2023/05/25 08:10:07;;;;;;;18.80;6.23;;;;;;;;;;5032938;28;20469;-82
2023/05/25 08:12:35;;;;;;;17.43;6.20;;;;;;;;;;5030850;28;20535;-81
2023/05/25 08:15:01;;;;;;;19.50;7.83;;;;;;;;;;5031354;28;20476;-81
2023/05/25 08:17:29;;;;;;;27.97;5.90;;;;;;;;;;5031368;28;20515;-81
2023/05/25 08:19:56;;;;;;;22.23;5.80;;;;;;;;;;5030542;28;20448;-81
2023/05/25 08:22:23;;;;;;;19.57;5.73;;;;;;;;;;5008307;28;20450;-81
2023/05/25 08:24:49;;;;;;;20.77;5.97;;;;;;;;;;5035240;28;20803;-81
2023/05/25 08:27:16;;;;;;;19.80;5.73;;;;;;;;;;5033710;28;20456;-82
2023/05/25 08:29:44;;;;;;;21.90;6.53;;;;;;;;;;5031365;28;20451;-81
2023/05/25 08:32:10;;;;;;;12.63;5.80;;;;;;;;;;5013393;28;20489;-82
2023/05/25 08:34:36;;;;;;;25.30;6.90;;;;;;;;;;5034037;28;20471;-81
2023/05/25 08:37:03;;;;;;;17.03;5.30;;;;;;;;;;5033992;28;20996;-81
2023/05/25 08:39:30;;;;;;;16.67;6.50;;;;;;;;;;5025821;28;20448;-81
2023/05/25 08:41:58;;;;;;;23.43;6.20;;;;;;;;;;5031171;28;20464;-81
2023/05/25 08:44:26;;;;;;;18.17;5.60;;;;;;;;;;5035956;28;20450;-82
2023/05/25 08:46:56;;;;;;;24.47;6.77;;;;;;;;;;5031699;28;20944;-80
2023/05/25 08:49:22;;;;;;;15.50;6.33;;;;;;;;;;5039028;28;20464;-82
2023/05/25 08:51:50;;;;;;;25.03;7.30;;;;;;;;;;5032747;28;20448;-81
2023/05/25 08:54:17;;;;;;;25.90;6.60;;;;;;;;;;5035917;28;20895;-81
2023/05/25 08:56:48;;;;;;;17.03;5.97;;;;;;;;;;5035467;28;20917;-80
2023/05/25 08:59:17;;;;;;;19.30;5.63;;;;;;;;;;5033673;28;20500;-82
2023/05/25 09:01:45;;;;;;;25.43;5.63;;;;;;;;;;5039285;28;20938;-82
2023/05/25 09:04:13;;;;;;;23.50;6.30;;;;;;;;;;5025408;28;20456;-79
2023/05/25 09:06:40;;;;;;;16.13;5.83;;;;;;;;;;5037280;28;20532;-80
2023/05/25 09:09:06;;;;;;;19.90;5.47;;;;;;;;;;5031844;28;20487;-82
2023/05/25 09:11:34;;;;;;;17.53;5.93;;;;;;;;;;5028272;28;20461;-80
2023/05/25 09:14:01;;;;;;;20.30;5.63;;;;;;;;;;5029632;28;20539;-81
2023/05/25 09:16:27;;;;;;;18.07;6.23;;;;;;;;;;5037071;28;20445;-81
2023/05/25 09:18:53;;;;;;;31.87;6.97;;;;;;;;;;5032881;28;20994;-82
2023/05/25 09:21:21;;;;;;;19.27;6.07;;;;;;;;;;5037024;28;20440;-81
2023/05/25 09:23:49;;;;;;;17.07;6.90;;;;;;;;;;5027921;28;20449;-82
2023/05/25 09:26:16;;;;;;;20.93;6.37;;;;;;;;;;5032245;28;20431;-80
2023/05/25 09:28:45;;;;;;;18.53;6.40;;;;;;;;;;5028013;28;20443;-82
2023/05/25 09:31:12;;;;;;;23.43;7.87;;;;;;;;;;5013907;28;20462;-81
2023/05/25 09:33:38;;;;;;;21.03;7.37;;;;;;;;;;5036349;28;20447;-81
2023/05/25 09:36:05;;;;;;;20.63;6.47;;;;;;;;;;5038054;28;20427;-79
2023/05/25 09:38:33;;;;;;;24.23;7.03;;;;;;;;;;5030970;28;20457;-79
2023/05/25 09:40:59;;;;;;;19.37;6.83;;;;;;;;;;5024572;28;20427;-80
2023/05/25 09:43:26;;;;;;;23.57;8.17;;;;;;;;;;5035786;28;20458;-80
2023/05/25 09:45:53;;;;;;;16.90;6.37;;;;;;;;;;5033068;28;20421;-81
2023/05/25 09:48:20;;;;;;;15.13;5.70;;;;;;;;;;5033001;28;20480;-80
2023/05/25 09:50:46;;;;;;;20.57;5.87;;;;;;;;;;5034685;28;20449;-80
2023/05/25 09:53:12;;;;;;;14.10;5.50;;;;;;;;;;5037532;28;20449;-80
2023/05/25 09:55:40;;;;;;;20.87;6.43;;;;;;;;;;5029606;28;20472;-79
2023/05/25 09:58:07;;;;;;;19.33;6.13;;;;;;;;;;5027539;28;20990;-80
2023/05/25 10:00:33;;;;;;;15.93;7.53;;;;;;;;;;5034273;28;20472;-81
2023/05/25 10:03:00;;;;;;;21.63;7.43;;;;;;;;;;5033222;28;20453;-81
2023/05/25 10:05:26;;;;;;;16.20;5.67;;;;;;;;;;5012799;28;20480;-81
2023/05/25 10:07:56;;;;;;;17.90;5.77;;;;;;;;;;5040719;28;20968;-81
2023/05/25 10:10:25;;;;;;;22.03;6.17;;;;;;;;;;5037230;28;20483;-82
2023/05/25 10:12:53;;;;;;;25.47;6.20;;;;;;;;;;5031918;28;20449;-81
2023/05/25 10:15:21;;;;;;;19.23;5.47;;;;;;;;;;5032056;28;20540;-81
2023/05/25 10:17:52;;;;;;;17.60;5.40;;;;;;;;;;5029835;28;20564;-82
2023/05/25 10:20:19;;;;;;;18.20;5.37;;;;;;;;;;5031684;28;20469;-81
2023/05/25 10:22:48;;;;;;;18.47;6.80;;;;;;;;;;5030039;28;20456;-82
2023/05/25 10:25:16;;;;;;;27.00;6.30;;;;;;;;;;5036286;28;20483;-81
2023/05/25 10:27:47;;;;;;;24.57;7.57;;;;;;;;;;5032491;28;20465;-81
2023/05/25 10:30:15;;;;;;;21.27;6.40;;;;;;;;;;5022033;28;20478;-81
2023/05/25 10:32:42;;;;;;;18.50;5.77;;;;;;;;;;5034499;28;20465;-81
2023/05/25 10:35:09;;;;;;;19.60;7.10;;;;;;;;;;5016350;28;20461;-81
2023/05/25 10:37:35;;;;;;;28.17;6.97;;;;;;;;;;5031682;28;20475;-81
2023/05/25 10:40:02;;;;;;;20.93;6.90;;;;;;;;;;5028353;28;20465;-81
2023/05/25 10:42:29;;;;;;;19.50;6.67;;;;;;;;;;5034609;28;20456;-81
2023/05/25 10:44:55;;;;;;;20.77;6.90;;;;;;;;;;5031595;28;21013;-81
2023/05/25 10:47:24;;;;;;;14.90;6.67;;;;;;;;;;5036086;28;20507;-80
2023/05/25 10:49:54;;;;;;;22.93;7.47;;;;;;;;;;5033953;28;20535;-80
2023/05/25 10:52:21;;;;;;;20.50;6.10;;;;;;;;;;5024167;28;20453;-81
2023/05/25 10:54:48;;;;;;;19.60;7.10;;;;;;;;;;5020305;28;20470;-81
2023/05/25 10:57:18;;;;;;;16.23;5.67;;;;;;;;;;5035161;28;20514;-81
2023/05/25 10:59:48;;;;;;;15.03;4.17;;;;;;;;;;5026900;28;21010;-81
2023/05/25 11:02:15;;;;;;;13.20;5.70;;;;;;;;;;5034865;28;20468;-81
2023/05/25 11:04:44;;;;;;;14.63;5.30;;;;;;;;;;5032119;28;20477;-81
2023/05/25 11:07:15;;;;;;;23.40;7.93;;;;;;;;;;5015413;28;20482;-82
2023/05/25 11:09:44;;;;;;;22.97;6.70;;;;;;;;;;5032296;28;20998;-82
2023/05/25 11:12:20;;;;;;;25.00;6.00;;;;;;;;;;5032774;28;20445;-81
2023/05/25 11:15:01;;;;;;;18.43;6.37;;;;;;;;;;5036131;28;20468;-80
2023/05/25 11:17:31;;;;;;;24.40;5.93;;;;;;;;;;5033319;28;20468;-80
2023/05/25 11:20:01;;;;;;;25.40;7.13;;;;;;;;;;5030592;28;20528;-79
2023/05/25 11:22:30;;;;;;;23.00;7.50;;;;;;;;;;5026390;28;20430;-81
2023/05/25 11:24:57;;;;;;;23.40;8.40;;;;;;;;;;5028475;28;20477;-82
2023/05/25 11:27:24;;;;;;;28.33;6.67;;;;;;;;;;5022199;28;20473;-82
2023/05/25 11:29:51;;;;;;;20.17;5.47;;;;;;;;;;5031164;28;20530;-79
2023/05/25 11:32:17;;;;;;;18.83;7.00;;;;;;;;;;5035214;28;20427;-80
2023/05/25 11:34:45;;;;;;;22.27;6.40;;;;;;;;;;5033937;28;20837;-80
2023/05/25 11:37:14;;;;;;;17.83;6.53;;;;;;;;;;5031853;28;20472;-79
2023/05/25 11:39:43;;;;;;;20.67;6.20;;;;;;;;;;5033761;28;20464;-80
2023/05/25 11:42:10;;;;;;;14.30;6.30;;;;;;;;;;5034192;28;20452;-80
2023/05/25 11:44:37;;;;;;;22.70;6.63;;;;;;;;;;5032450;28;20990;-81
2023/05/25 11:47:07;;;;;;;25.00;7.80;;;;;;;;;;5037858;28;21010;-80
2023/05/25 11:49:33;;;;;;;31.67;6.23;;;;;;;;;;5040131;28;20451;-79
2023/05/25 11:51:59;;;;;;;22.53;6.77;;;;;;;;;;5037844;28;20441;-80
2023/05/25 11:54:28;;;;;;;22.77;5.93;;;;;;;;;;5017978;28;20472;-81
2023/05/25 11:56:58;;;;;;;21.73;6.83;;;;;;;;;;5023078;28;20460;-80
2023/05/25 11:59:24;;;;;;;21.03;5.40;;;;;;;;;;5038840;28;20483;-81
2023/05/25 12:01:57;;;;;;;19.30;6.03;;;;;;;;;;5037312;28;20415;-80
2023/05/25 12:04:24;;;;;;;18.87;6.90;;;;;;;;;;5036287;28;20488;-79
2023/05/25 12:06:50;;;;;;;18.70;6.27;;;;;;;;;;5033020;28;20492;-80
2023/05/25 12:09:20;;;;;;;22.03;5.53;;;;;;;;;;5032120;28;20480;-79
2023/05/25 12:11:48;;;;;;;18.60;6.40;;;;;;;;;;5031554;28;20456;-80
2023/05/25 12:14:16;;;;;;;25.73;6.47;;;;;;;;;;5037012;28;20461;-82
2023/05/25 12:16:43;;;;;;;21.07;6.27;;;;;;;;;;5027936;28;20942;-79
2023/05/25 12:19:10;;;;;;;19.60;6.50;;;;;;;;;;5014913;28;20577;-82
2023/05/25 12:21:38;;;;;;;17.63;5.77;;;;;;;;;;5012766;28;20891;-80
2023/05/25 12:24:04;;;;;;;25.60;7.10;;;;;;;;;;5028302;28;20480;-81
2023/05/25 12:26:31;;;;;;;22.97;6.40;;;;;;;;;;5035823;28;20451;-82
2023/05/25 12:29:00;;;;;;;24.23;6.70;;;;;;;;;;5033937;28;20480;-81
2023/05/25 12:31:27;;;;;;;23.63;7.90;;;;;;;;;;5031718;28;20453;-79
2023/05/25 12:34:07;;;;;;;19.47;7.33;;;;;;;;;;5033507;28;20478;-79
2023/05/25 12:36:41;;;;;;;17.80;6.40;;;;;;;;;;5016012;28;20905;-82
2023/05/25 12:39:08;;;;;;;21.37;7.20;;;;;;;;;;5036340;28;20479;-81
2023/05/25 12:41:46;;;;;;;26.73;7.37;;;;;;;;;;5037291;28;20938;-82
2023/05/25 12:44:18;;;;;;;21.07;7.07;;;;;;;;;;5034397;28;20456;-80
2023/05/25 12:46:44;;;;;;;24.47;6.97;;;;;;;;;;5034975;28;20506;-80
2023/05/25 12:49:21;;;;;;;16.00;6.40;;;;;;;;;;5036329;28;20476;-81
2023/05/25 12:51:48;;;;;;;20.83;7.70;;;;;;;;;;5034095;28;20455;-80
2023/05/25 12:54:15;;;;;;;28.50;8.40;;;;;;;;;;5020177;28;20842;-80
2023/05/25 12:56:55;;;;;;;28.37;6.73;;;;;;;;;;5017814;28;20461;-79
2023/05/25 12:59:23;;;;;;;26.97;6.97;;;;;;;;;;5035873;28;20457;-80
2023/05/25 13:01:49;;;;;;;25.93;8.50;;;;;;;;;;5027615;28;20813;-80
2023/05/25 13:04:15;;;;;;;22.20;6.70;;;;;;;;;;5035411;28;20495;-80
2023/05/25 13:06:42;;;;;;;21.87;7.10;;;;;;;;;;5032810;28;20967;-81
2023/05/25 13:09:08;;;;;;;30.10;8.33;;;;;;;;;;5014982;28;20489;-80
2023/05/25 13:11:35;;;;;;;23.10;6.60;;;;;;;;;;5035942;28;20519;-80
2023/05/25 13:14:01;;;;;;;16.87;6.80;;;;;;;;;;5033339;28;21021;-81
2023/05/25 13:16:30;;;;;;;30.23;7.43;;;;;;;;;;5038100;28;20478;-80
2023/05/25 13:18:56;;;;;;;20.60;6.17;;;;;;;;;;5026771;28;20469;-80
2023/05/25 13:21:23;;;;;;;20.20;7.00;;;;;;;;;;5035049;28;20934;-79
2023/05/25 13:23:49;;;;;;;20.63;7.73;;;;;;;;;;5029804;28;20468;-80
2023/05/25 13:26:16;;;;;;;23.53;6.97;;;;;;;;;;5029056;28;20476;-80
2023/05/25 13:28:42;;;;;;;17.77;6.80;;;;;;;;;;5026989;28;20472;-79
2023/05/25 13:31:08;;;;;;;24.83;6.47;;;;;;;;;;5042117;28;20449;-82
2023/05/25 13:33:37;;;;;;;24.03;6.83;;;;;;;;;;5035592;28;20438;-80
2023/05/25 13:36:07;;;;;;;17.83;7.00;;;;;;;;;;5032943;28;20985;-81
2023/05/25 13:38:34;;;;;;;20.30;6.03;;;;;;;;;;5029168;28;20560;-80
2023/05/25 13:41:01;;;;;;;20.80;6.23;;;;;;;;;;5014755;28;20453;-79
2023/05/25 13:43:27;;;;;;;13.43;6.03;;;;;;;;;;5033269;28;20534;-79
2023/05/25 13:45:53;;;;;;;25.20;6.70;;;;;;;;;;5015437;28;20489;-81
2023/05/25 13:48:21;;;;;;;16.60;6.43;;;;;;;;;;5035083;28;20472;-82
2023/05/25 13:50:49;;;;;;;23.10;7.40;;;;;;;;;;5015214;28;20452;-81
2023/05/25 13:53:15;;;;;;;21.43;6.40;;;;;;;;;;5033122;28;20504;-83
2023/05/25 13:55:42;;;;;;;15.57;6.30;;;;;;;;;;5029823;28;20442;-79
2023/05/25 13:58:08;;;;;;;19.30;7.30;;;;;;;;;;5028414;28;20466;-82
2023/05/25 14:00:35;;;;;;;20.53;5.80;;;;;;;;;;5030066;28;20591;-82
2023/05/25 14:03:01;;;;;;;23.10;7.70;;;;;;;;;;5037001;28;20459;-81
2023/05/25 14:05:29;;;;;;;22.77;6.30;;;;;;;;;;5042751;28;20476;-81
2023/05/25 14:07:57;;;;;;;19.40;5.60;;;;;;;;;;5025549;28;20501;-79
2023/05/25 14:10:23;;;;;;;18.93;6.63;;;;;;;;;;5035332;28;20846;-81
2023/05/25 14:12:50;;;;;;;19.93;6.27;;;;;;;;;;5037311;28;20445;-81
2023/05/25 14:15:16;;;;;;;26.37;6.10;;;;;;;;;;5036297;28;20468;-82
2023/05/25 14:17:43;;;;;;;27.27;7.70;;;;;;;;;;5037281;28;20997;-81
2023/05/25 14:20:10;;;;;;;17.53;6.00;;;;;;;;;;5030573;28;20500;-81
2023/05/25 14:22:36;;;;;;;27.60;7.93;;;;;;;;;;5032917;28;20449;-82
2023/05/25 14:25:05;;;;;;;25.43;7.47;;;;;;;;;;5031372;28;20483;-80
2023/05/25 14:27:31;;;;;;;17.47;6.80;;;;;;;;;;5031796;28;20508;-82
2023/05/25 14:29:57;;;;;;;16.13;5.67;;;;;;;;;;5033253;28;20993;-81